• Join FlightAware (Why Join?)
  • Login
  • US Flag 
08:44AM EST


 

Airport Tracker/Info


-or-


 

Live Flight TrackerFlight Track Log ✈ FLG3777 ✈ 23-Jun-2013 ✈ KORD - KCVG

Flight Track Log - Related Links

Times and Time Zones

All times are in EDT time to prevent confusion due to time zone crossing. See the FLG3777 flight status page for this flight to view local times or setup timezone preferences in your user account.

Time Position Orientation Groundspeed Altitude Reporting Facility
EDT Latitude Longitude Course Direction KTS MPH feet Rate Location/Type
02:09PM 41.9000 -87.9167 171° South 191 220 2,900  Level Chicago TRACON
02:11PM 41.7205 -87.6021 159° South  Level Estimated
02:11PM 41.8167 -87.8789 161° South 236 272 5,700  Level Chicago Center
02:12PM 41.6333 -87.5012 153° Southeast  Level Estimated
02:12PM 41.7500 -87.8247 149° Southeast 273 314 8,100  Level Chicago Center
02:13PM 41.5459 -87.4005 159° South  Level Estimated
02:13PM 41.6683 -87.7617 150° Southeast 282 325 10,700  Level Chicago Center
02:14PM 41.4585 -87.3001 171° South  Level Estimated
02:14PM 41.5967 -87.7061 150° Southeast 296 341 12,800  Level Chicago Center
02:15PM 41.5308 -87.6336 140° Southeast 305 351 14,800 1,740 Climbing Chicago Center
02:16PM 41.4642 -87.5631 142° Southeast 305 351 16,500 1,200 Climbing Chicago Center
02:17PM 41.3883 -87.4928 145° Southeast 326 375 17,400 840 Climbing Chicago Center
02:18PM 41.3008 -87.4294 151° Southeast 353 406 18,300 960 Climbing Chicago Center
02:19PM 41.1933 -87.3511 151° Southeast 366 421 19,500 1,080 Climbing Chicago Center
02:20PM 41.1025 -87.2842 151° Southeast 372 428 20,600 960 Climbing Chicago Center
02:21PM 41.0100 -87.2181 152° Southeast 380 437 21,600 960 Climbing Chicago Center
02:22PM 40.9172 -87.1517 152° Southeast 380 437 22,600 660 Climbing Chicago Center
02:23PM 40.8242 -87.0839 151° Southeast 384 442 23,000 180 Climbing Chicago Center
02:24PM 40.7242 -87.0131 152° Southeast 407 468 23,000  Level Chicago Center
02:25PM 40.6117 -86.9050 144° Southeast 432 497 23,000  Level Chicago Center
02:26PM 40.5183 -86.8022 140° Southeast 438 504 23,000  Level Chicago Center
02:27PM 40.4250 -86.6967 139° Southeast 442 509 23,000  Level Chicago Center
02:28PM 40.3292 -86.5914 140° Southeast 446 513 23,000  Level Chicago Center
02:29PM 40.2331 -86.4839 139° Southeast 452 520 23,000  Level Chicago Center
02:30PM 40.1372 -86.3778 140° Southeast 451 519 23,000  Level Chicago Center
02:31PM 40.0586 -86.2911 140° Southeast 454 522 23,000 -120 Level Indianapolis Center
02:32PM 39.9650 -86.1756 137° Southeast 459 528 22,800 -420 Descending Indianapolis Center
02:33PM 39.8878 -86.0439 127° Southeast 452 520 22,200 -1,620 Descending Indianapolis Center
02:34PM 39.8131 -85.9189 128° Southeast 437 503 19,500 -1,500 Descending Indianapolis Center
02:36PM 39.7000 -85.7333 128° Southeast 378 435 18,300 -780 Descending Cincinnati TRACON
02:37PM 39.6556 -85.6733 134° Southeast 345 397 17,700 -1,560 Descending Chicago Center
02:37PM 39.6028 -85.6022 134° Southeast 340 391 16,100 -2,100 Descending Indianapolis Center
02:38PM 39.5306 -85.5031 133° Southeast 374 430 14,100 -1,200 Descending Indianapolis Center
02:39PM 39.4753 -85.3983 124° Southeast 356 410 13,700 -780 Descending Indianapolis Center
02:40PM 39.4406 -85.2956 114° Southeast 316 364 12,500 -1,020 Descending Indianapolis Center
02:41PM 39.4097 -85.1969 112° Southeast 301 346 11,600 -960 Descending Indianapolis Center
02:43PM 39.3769 -85.0975 113° Southeast 302 348 10,600 -1,080 Descending Indianapolis Center
02:44PM 39.3397 -84.9822 113° Southeast 291 335 9,400 -1,260 Descending Indianapolis Center
02:45PM 39.3078 -84.8897 114° Southeast 284 327 8,100 -1,440 Descending Indianapolis Center
02:46PM 39.2775 -84.7975 113° Southeast 285 328 6,500 -1,560 Descending Indianapolis Center
02:47PM 39.2475 -84.7064 113° Southeast 278 320 5,000 -1,500 Descending Indianapolis Center